Time;durP1;ratioP1;P1;durP2;ratioP2;P2;SDS_P1;SDS_P2;PMS_P1;PMS_P2;Temp;Humidity;BMP_temperature;BMP_pressure;BME280_temperature;BME280_humidity;BME280_pressure;Samples;Min_cycle;Max_cycle;Signal;HPM_P1;HPM_P2
2021/07/29 00:00:10;;;;;;;11.08;7.08;;;22.60;71.80;;;;;;1872811;76;21031;-53
2021/07/29 00:02:40;;;;;;;13.68;6.75;;;22.60;71.90;;;;;;1872730;76;21011;-53
2021/07/29 00:05:09;;;;;;;10.00;6.78;;;22.60;71.80;;;;;;1872687;75;21035;-53
2021/07/29 00:07:39;;;;;;;13.18;7.67;;;22.60;72.00;;;;;;1872729;77;21051;-52
2021/07/29 00:10:09;;;;;;;11.18;6.85;;;22.60;72.00;;;;;;1872716;77;21047;-53
2021/07/29 00:12:38;;;;;;;12.88;6.70;;;22.70;71.90;;;;;;1872743;77;21034;-53
2021/07/29 00:15:14;;;;;;;9.05;6.53;;;22.70;71.90;;;;;;1872675;76;21059;-53
2021/07/29 00:20:29;;;;;;;11.00;6.30;;;22.70;71.90;;;;;;1872585;75;21035;-53
2021/07/29 00:23:00;;;;;;;10.72;6.75;;;22.70;71.80;;;;;;1872667;77;21015;-53
2021/07/29 00:25:30;;;;;;;12.10;7.70;;;22.70;71.90;;;;;;1872597;77;21027;-54
2021/07/29 00:28:00;;;;;;;13.28;7.62;;;22.60;71.70;;;;;;1872616;76;21501;-53
2021/07/29 00:30:29;;;;;;;17.82;8.70;;;22.50;71.60;;;;;;1872716;77;21109;-53
2021/07/29 00:32:59;;;;;;;12.23;8.13;;;22.40;71.60;;;;;;1872555;77;21003;-53
2021/07/29 00:35:29;;;;;;;9.20;7.45;;;22.20;71.60;;;;;;1872599;76;21027;-53
2021/07/29 00:38:01;;;;;;;11.35;7.45;;;22.10;72.00;;;;;;1872723;77;21092;-53
2021/07/29 00:40:30;;;;;;;12.05;7.53;;;22.00;72.60;;;;;;1872692;77;21023;-52
2021/07/29 00:42:59;;;;;;;12.20;7.97;;;22.00;72.80;;;;;;1872706;76;21030;-52
2021/07/29 00:45:29;;;;;;;12.98;7.85;;;22.00;72.80;;;;;;1872538;77;21003;-53
2021/07/29 00:47:58;;;;;;;9.80;6.97;;;22.10;72.80;;;;;;1872714;77;21108;-54
2021/07/29 00:50:28;;;;;;;9.60;6.87;;;22.20;72.70;;;;;;1872723;77;21007;-53
2021/07/29 00:52:57;;;;;;;13.80;7.22;;;22.30;72.50;;;;;;1872674;77;21156;-53
2021/07/29 00:55:27;;;;;;;10.90;6.97;;;22.30;72.20;;;;;;1872613;77;21003;-53
2021/07/29 00:57:57;;;;;;;10.63;6.47;;;22.30;72.20;;;;;;1872540;77;21035;-53
2021/07/29 01:00:26;;;;;;;12.07;7.28;;;22.30;72.10;;;;;;1872687;77;21481;-54
2021/07/29 01:02:56;;;;;;;11.85;7.47;;;22.30;71.90;;;;;;1872553;76;21007;-53
2021/07/29 01:05:25;;;;;;;12.60;7.60;;;22.30;71.90;;;;;;1872654;77;21027;-53
2021/07/29 01:07:54;;;;;;;10.40;7.08;;;22.20;71.90;;;;;;1872580;77;21031;-54
2021/07/29 01:10:24;;;;;;;10.40;6.83;;;22.20;71.90;;;;;;1872717;77;21027;-54
2021/07/29 01:12:53;;;;;;;10.55;7.90;;;22.20;72.10;;;;;;1872680;76;21011;-53
2021/07/29 01:15:23;;;;;;;12.75;8.08;;;22.20;71.90;;;;;;1884067;76;21097;-53
2021/07/29 01:17:52;;;;;;;9.58;7.30;;;22.20;72.00;;;;;;1894201;76;21065;-54
2021/07/29 01:20:22;;;;;;;12.33;7.78;;;22.10;72.20;;;;;;1894272;75;21092;-53
2021/07/29 01:22:52;;;;;;;10.38;7.55;;;22.10;72.20;;;;;;1894225;76;21084;-54
2021/07/29 01:25:21;;;;;;;11.00;7.60;;;22.10;72.10;;;;;;1894028;76;21129;-53
2021/07/29 01:27:51;;;;;;;11.53;7.15;;;22.10;72.10;;;;;;1894122;75;21022;-53
2021/07/29 01:30:20;;;;;;;13.62;7.90;;;22.10;72.30;;;;;;1894105;74;21026;-54
2021/07/29 01:32:50;;;;;;;10.43;7.85;;;22.10;72.30;;;;;;1894211;75;21512;-53
2021/07/29 01:35:19;;;;;;;11.15;7.45;;;22.10;72.30;;;;;;1894136;74;21022;-53
2021/07/29 01:37:48;;;;;;;11.20;8.33;;;22.10;72.40;;;;;;1894158;76;21034;-54
2021/07/29 01:40:17;;;;;;;14.07;8.00;;;22.00;72.30;;;;;;1894093;75;21099;-54
2021/07/29 01:42:47;;;;;;;11.50;9.10;;;21.90;72.50;;;;;;1894148;76;21536;-53
2021/07/29 01:45:16;;;;;;;12.98;7.47;;;21.80;72.70;;;;;;1894148;76;21038;-52
2021/07/29 01:47:45;;;;;;;14.07;8.03;;;21.70;72.80;;;;;;1894039;76;21006;-53
2021/07/29 01:50:15;;;;;;;13.88;9.10;;;21.70;73.20;;;;;;1894191;75;20998;-54
2021/07/29 01:52:44;;;;;;;15.58;8.10;;;21.70;73.00;;;;;;1894062;75;21038;-53
2021/07/29 01:55:14;;;;;;;12.68;8.83;;;21.60;73.10;;;;;;1894248;75;21088;-54
2021/07/29 01:57:44;;;;;;;15.08;8.83;;;21.60;73.30;;;;;;1894227;76;21062;-53
2021/07/29 02:00:14;;;;;;;10.38;8.18;;;21.50;73.20;;;;;;1894189;76;21073;-53
2021/07/29 02:02:44;;;;;;;15.18;8.55;;;21.50;73.50;;;;;;1894131;76;21092;-53
2021/07/29 02:05:14;;;;;;;20.00;7.75;;;21.40;73.60;;;;;;1894152;74;21105;-52
2021/07/29 02:07:43;;;;;;;11.45;7.83;;;21.40;73.70;;;;;;1894197;76;21081;-52
2021/07/29 02:10:12;;;;;;;12.95;8.45;;;21.40;73.70;;;;;;1894209;76;21088;-52
2021/07/29 02:12:42;;;;;;;14.58;8.23;;;21.40;73.70;;;;;;1894269;75;21515;-52
2021/07/29 02:15:11;;;;;;;11.90;7.85;;;21.50;73.80;;;;;;1894196;76;21136;-52
2021/07/29 02:17:41;;;;;;;12.78;8.58;;;21.50;73.80;;;;;;1894201;75;21080;-52
2021/07/29 02:20:12;;;;;;;12.90;7.78;;;21.50;73.80;;;;;;1894192;75;21037;-52
2021/07/29 02:22:42;;;;;;;11.55;7.03;;;21.50;73.80;;;;;;1894145;75;21039;-51
2021/07/29 02:25:12;;;;;;;13.98;8.33;;;21.60;73.80;;;;;;1894127;74;21072;-52
2021/07/29 02:27:41;;;;;;;12.50;9.35;;;21.60;73.70;;;;;;1894117;76;21022;-52
2021/07/29 02:30:11;;;;;;;12.80;7.92;;;21.70;73.40;;;;;;1894197;75;21022;-51
2021/07/29 02:32:41;;;;;;;11.12;7.65;;;21.80;73.40;;;;;;1894159;76;21303;-52
2021/07/29 02:35:11;;;;;;;12.75;8.10;;;21.80;73.30;;;;;;1894173;76;21030;-52
2021/07/29 02:37:40;;;;;;;22.42;9.03;;;21.90;73.20;;;;;;1894025;76;21054;-51
2021/07/29 02:40:10;;;;;;;13.25;8.23;;;21.90;73.00;;;;;;1894131;76;21382;-52
2021/07/29 02:42:40;;;;;;;13.10;8.38;;;21.90;73.10;;;;;;1894151;76;21077;-52
2021/07/29 02:45:09;;;;;;;15.43;8.45;;;22.00;73.10;;;;;;1894086;76;21030;-52
2021/07/29 02:47:39;;;;;;;18.75;9.15;;;22.00;72.70;;;;;;1894046;76;21125;-52
2021/07/29 02:50:09;;;;;;;18.15;8.75;;;22.00;72.30;;;;;;1894041;76;21033;-52
2021/07/29 02:52:38;;;;;;;14.98;8.80;;;22.00;72.70;;;;;;1893998;75;21022;-51
2021/07/29 02:55:08;;;;;;;24.50;11.18;;;22.00;72.70;;;;;;1894063;76;21030;-52
2021/07/29 02:57:38;;;;;;;14.18;8.75;;;21.90;73.00;;;;;;1894153;76;21092;-51
2021/07/29 03:00:08;;;;;;;21.57;10.20;;;21.90;73.00;;;;;;1894120;76;21088;-52
2021/07/29 03:02:37;;;;;;;12.30;8.60;;;21.90;73.20;;;;;;1893976;75;21084;-52
2021/07/29 03:05:07;;;;;;;16.17;9.28;;;21.90;73.10;;;;;;1894151;76;21030;-52
2021/07/29 03:07:36;;;;;;;14.58;8.65;;;21.90;73.20;;;;;;1894005;76;21026;-50
2021/07/29 03:10:06;;;;;;;14.90;8.23;;;21.80;73.20;;;;;;1893977;76;21058;-51
2021/07/29 03:12:35;;;;;;;14.93;9.10;;;21.80;73.60;;;;;;1894011;76;21105;-52
2021/07/29 03:15:05;;;;;;;13.40;8.50;;;21.80;73.80;;;;;;1894011;76;21017;-52
2021/07/29 03:17:35;;;;;;;13.35;8.08;;;21.80;73.80;;;;;;1893897;76;21058;-51
2021/07/29 03:20:05;;;;;;;13.83;8.80;;;21.90;73.80;;;;;;1894037;76;21087;-52
2021/07/29 03:22:34;;;;;;;14.53;8.65;;;22.00;73.90;;;;;;1894022;76;21074;-52
2021/07/29 03:25:03;;;;;;;18.23;8.53;;;22.20;73.70;;;;;;1893977;76;21321;-52
2021/07/29 03:27:33;;;;;;;18.32;9.00;;;22.30;73.50;;;;;;1894040;76;21096;-52
2021/07/29 03:30:03;;;;;;;10.72;8.23;;;22.40;73.10;;;;;;1893958;75;21026;-53
2021/07/29 03:32:32;;;;;;;13.38;8.75;;;22.50;72.90;;;;;;1894040;76;21084;-52
2021/07/29 03:35:02;;;;;;;16.70;7.80;;;22.60;72.80;;;;;;1894018;76;21002;-52
2021/07/29 03:37:31;;;;;;;11.40;8.13;;;22.60;72.60;;;;;;1893958;76;21042;-52
2021/07/29 03:40:07;;;;;;;16.02;9.15;;;22.60;72.50;;;;;;1894123;76;21003;-52
2021/07/29 03:42:36;;;;;;;12.28;8.65;;;22.70;72.50;;;;;;1894033;76;21058;-52
2021/07/29 03:45:06;;;;;;;16.30;8.60;;;22.70;72.40;;;;;;1894063;76;21027;-52
2021/07/29 03:47:36;;;;;;;18.95;8.68;;;22.80;72.20;;;;;;1894072;76;21002;-52
2021/07/29 03:50:06;;;;;;;14.05;8.73;;;22.80;72.10;;;;;;1894179;75;21026;-52
2021/07/29 03:52:37;;;;;;;13.22;8.70;;;22.90;72.00;;;;;;1894091;75;21030;-52
2021/07/29 03:55:07;;;;;;;27.15;17.48;;;23.00;72.50;;;;;;1894287;76;21030;-52
2021/07/29 03:57:37;;;;;;;23.55;14.45;;;23.10;71.70;;;;;;1894163;76;21034;-52
2021/07/29 04:00:07;;;;;;;33.80;19.10;;;23.20;71.50;;;;;;1894054;76;21030;-53
2021/07/29 04:02:36;;;;;;;38.78;21.02;;;23.30;71.20;;;;;;1874358;76;21002;-52
2021/07/29 04:05:06;;;;;;;52.53;25.82;;;23.40;71.20;;;;;;1894297;75;21094;-51
2021/07/29 04:07:36;;;;;;;30.05;17.82;;;23.60;70.90;;;;;;1894080;76;21076;-53
2021/07/29 04:10:07;;;;;;;30.92;16.50;;;23.70;70.60;;;;;;1894109;75;21050;-53
2021/07/29 04:12:37;;;;;;;51.13;25.75;;;23.80;70.50;;;;;;1894069;76;21022;-52
2021/07/29 04:15:07;;;;;;;29.42;16.40;;;23.90;70.40;;;;;;1894212;75;21124;-53
2021/07/29 04:17:36;;;;;;;34.80;17.80;;;24.00;70.30;;;;;;1880588;76;21055;-52
2021/07/29 04:20:07;;;;;;;16.95;11.33;;;24.10;70.10;;;;;;1872345;77;21003;-50
2021/07/29 04:22:36;;;;;;;30.20;16.35;;;24.20;70.50;;;;;;1872138;77;21027;-47
2021/07/29 04:25:06;;;;;;;41.08;22.25;;;24.30;70.30;;;;;;1871784;77;21086;-52
2021/07/29 04:27:36;;;;;;;56.68;31.37;;;24.40;69.80;;;;;;1871550;77;21082;-52
2021/07/29 04:30:05;;;;;;;55.33;28.90;;;24.50;69.70;;;;;;1872255;77;21134;-52
2021/07/29 04:32:36;;;;;;;46.98;25.12;;;24.60;69.50;;;;;;1872557;77;21019;-51
2021/07/29 04:35:06;;;;;;;45.50;24.57;;;24.60;69.50;;;;;;1872672;77;21031;-52
2021/07/29 04:37:35;;;;;;;37.38;21.68;;;24.70;69.30;;;;;;1872602;77;21097;-53
2021/07/29 04:40:05;;;;;;;45.10;22.50;;;24.80;69.20;;;;;;1872568;77;21027;-52
2021/07/29 04:42:34;;;;;;;38.42;19.92;;;24.80;69.40;;;;;;1872520;75;21063;-53
2021/07/29 04:45:04;;;;;;;31.50;17.70;;;24.90;68.70;;;;;;1872607;76;21042;-52
2021/07/29 04:47:34;;;;;;;35.83;19.80;;;25.00;68.40;;;;;;1872664;77;21054;-53
2021/07/29 04:50:03;;;;;;;34.60;18.60;;;25.10;68.20;;;;;;1872592;77;21046;-52
2021/07/29 04:52:33;;;;;;;30.97;17.60;;;25.20;67.90;;;;;;1872679;77;21081;-53
2021/07/29 04:55:02;;;;;;;31.25;15.45;;;25.30;67.50;;;;;;1872635;77;20999;-53
2021/07/29 04:57:32;;;;;;;24.05;13.43;;;25.40;67.10;;;;;;1872662;77;21500;-53
2021/07/29 05:00:01;;;;;;;32.08;16.75;;;25.40;66.10;;;;;;1872580;77;21031;-52
2021/07/29 05:02:31;;;;;;;25.85;13.98;;;25.50;65.30;;;;;;1872541;77;21031;-53
2021/07/29 05:05:01;;;;;;;27.25;16.05;;;25.60;64.70;;;;;;1872432;77;20999;-53
2021/07/29 05:07:30;;;;;;;19.73;11.08;;;25.70;63.90;;;;;;1872563;77;21078;-54
2021/07/29 05:09:59;;;;;;;20.27;10.40;;;25.80;62.90;;;;;;1872532;77;21081;-54
2021/07/29 05:12:29;;;;;;;19.70;10.25;;;25.90;62.70;;;;;;1872629;77;21108;-53
2021/07/29 05:14:58;;;;;;;21.48;9.93;;;25.90;62.30;;;;;;1872635;77;21046;-54
2021/07/29 05:17:28;;;;;;;17.30;7.53;;;26.00;62.00;;;;;;1879805;76;21208;-54
2021/07/29 05:19:57;;;;;;;12.55;8.10;;;26.10;61.00;;;;;;1894201;76;21046;-54
2021/07/29 05:22:27;;;;;;;12.70;6.55;;;26.10;60.20;;;;;;1894115;75;21030;-54
2021/07/29 05:24:56;;;;;;;13.15;5.72;;;26.20;59.50;;;;;;1893954;76;21002;-54
2021/07/29 05:27:26;;;;;;;11.03;5.42;;;26.20;58.50;;;;;;1893994;74;21092;-54
2021/07/29 05:29:55;;;;;;;9.35;5.80;;;26.20;57.40;;;;;;1894019;75;21093;-54
2021/07/29 05:32:24;;;;;;;12.68;8.08;;;26.30;57.20;;;;;;1894067;76;21073;-53
2021/07/29 05:34:54;;;;;;;11.35;7.00;;;26.40;57.10;;;;;;1894096;75;21425;-53
2021/07/29 05:37:23;;;;;;;14.28;6.47;;;26.40;56.90;;;;;;1894063;75;21026;-53
2021/07/29 05:39:53;;;;;;;11.00;6.85;;;26.50;57.00;;;;;;1894171;75;21022;-52
2021/07/29 05:42:24;;;;;;;15.10;7.37;;;26.50;56.50;;;;;;1894120;76;21030;-53
2021/07/29 05:44:53;;;;;;;15.30;8.68;;;26.60;56.80;;;;;;1894083;76;21014;-53
2021/07/29 05:47:22;;;;;;;12.93;7.15;;;26.70;56.80;;;;;;1894223;76;21088;-53
2021/07/29 05:49:52;;;;;;;15.72;7.10;;;26.80;56.60;;;;;;1894179;76;21003;-54
2021/07/29 05:52:21;;;;;;;10.13;6.47;;;26.90;56.30;;;;;;1894271;76;21065;-54
2021/07/29 05:54:50;;;;;;;21.20;13.03;;;27.00;56.20;;;;;;1894157;76;21026;-53
2021/07/29 05:57:20;;;;;;;11.43;6.83;;;27.10;55.50;;;;;;1894219;76;21506;-53
2021/07/29 05:59:49;;;;;;;11.28;6.75;;;27.10;55.00;;;;;;1894330;76;21030;-54
2021/07/29 06:02:19;;;;;;;21.25;7.28;;;27.20;54.60;;;;;;1894056;76;21094;-53
2021/07/29 06:04:48;;;;;;;14.98;7.30;;;27.20;54.30;;;;;;1894182;76;21026;-54
2021/07/29 06:07:18;;;;;;;11.18;6.70;;;27.20;54.60;;;;;;1894092;76;21026;-54
2021/07/29 06:09:47;;;;;;;17.10;6.83;;;27.30;54.40;;;;;;1894005;75;21449;-54
2021/07/29 06:12:22;;;;;;;13.20;6.92;;;27.40;54.40;;;;;;1894076;76;21030;-53
2021/07/29 06:14:48;;;;;;;15.05;6.60;;;27.50;54.30;;;;;;1893843;75;21030;-54
2021/07/29 06:17:17;;;;;;;13.35;6.05;;;27.50;53.90;;;;;;1893814;75;21026;-53
2021/07/29 06:19:47;;;;;;;17.65;8.38;;;27.60;53.70;;;;;;1872667;77;21027;-54
2021/07/29 06:22:16;;;;;;;15.70;7.92;;;27.60;53.60;;;;;;1872623;77;21007;-54
2021/07/29 06:24:45;;;;;;;12.33;6.50;;;27.70;53.40;;;;;;1872510;76;21055;-54
2021/07/29 06:27:15;;;;;;;8.88;5.60;;;27.80;52.50;;;;;;1872631;77;21070;-54
2021/07/29 06:29:44;;;;;;;13.70;5.22;;;27.90;52.00;;;;;;1872648;77;21109;-54
2021/07/29 06:32:14;;;;;;;9.08;5.33;;;27.90;51.50;;;;;;1872627;77;21089;-54
2021/07/29 06:34:43;;;;;;;13.22;5.78;;;28.00;51.60;;;;;;1872542;77;21020;-54
2021/07/29 06:37:13;;;;;;;8.63;4.90;;;28.00;51.50;;;;;;1872574;76;21023;-54
2021/07/29 06:39:42;;;;;;;12.15;5.58;;;28.10;51.50;;;;;;1872503;77;21097;-53
2021/07/29 06:42:12;;;;;;;7.87;4.83;;;28.20;51.00;;;;;;1872621;77;21105;-54
2021/07/29 06:44:42;;;;;;;9.30;5.03;;;28.30;50.60;;;;;;1872580;76;21031;-54
2021/07/29 06:47:19;;;;;;;15.38;5.97;;;28.30;50.40;;;;;;1872695;77;21047;-54
2021/07/29 06:49:49;;;;;;;11.83;5.28;;;28.30;50.60;;;;;;1872641;77;21034;-54
2021/07/29 06:52:19;;;;;;;8.75;5.03;;;28.40;50.20;;;;;;1872189;76;21031;-53
2021/07/29 06:54:48;;;;;;;7.00;4.42;;;28.50;49.70;;;;;;1872659;75;21027;-54
2021/07/29 06:57:18;;;;;;;6.67;4.10;;;28.50;48.40;;;;;;1872666;75;21050;-54
2021/07/29 06:59:47;;;;;;;7.15;4.12;;;28.60;48.40;;;;;;1872683;76;21100;-54
2021/07/29 07:02:17;;;;;;;7.75;4.87;;;28.60;48.30;;;;;;1872638;77;21094;-53
2021/07/29 07:04:46;;;;;;;8.88;4.83;;;28.70;47.70;;;;;;1872460;76;21093;-53
2021/07/29 07:07:17;;;;;;;7.33;4.10;;;28.70;47.90;;;;;;1872683;77;21039;-54
2021/07/29 07:09:46;;;;;;;6.50;4.12;;;28.70;47.10;;;;;;1872670;77;21055;-53
2021/07/29 07:12:16;;;;;;;5.78;3.80;;;28.70;46.90;;;;;;1872411;77;21035;-53
2021/07/29 07:14:45;;;;;;;6.80;4.35;;;28.80;46.90;;;;;;1872475;77;21082;-54
2021/07/29 07:17:15;;;;;;;7.90;4.10;;;28.90;46.70;;;;;;1872377;75;21093;-55
2021/07/29 07:19:45;;;;;;;7.83;3.92;;;28.90;46.20;;;;;;1871983;75;21129;-54
2021/07/29 07:22:15;;;;;;;7.85;3.70;;;29.00;46.50;;;;;;1872368;77;21051;-52
2021/07/29 07:24:44;;;;;;;8.78;3.70;;;29.00;46.40;;;;;;1872201;76;21031;-53
2021/07/29 07:27:14;;;;;;;6.25;3.85;;;29.10;46.10;;;;;;1872297;77;21027;-54
2021/07/29 07:29:43;;;;;;;8.23;3.70;;;29.20;46.20;;;;;;1872245;77;21051;-55
2021/07/29 07:32:13;;;;;;;6.03;3.10;;;29.30;45.90;;;;;;1872451;77;21101;-55
2021/07/29 07:34:42;;;;;;;9.60;3.95;;;29.30;45.70;;;;;;1872388;76;21031;-54
2021/07/29 07:37:12;;;;;;;13.93;5.35;;;29.40;45.70;;;;;;1872642;77;21031;-54
2021/07/29 07:39:41;;;;;;;10.08;4.72;;;29.40;45.80;;;;;;1872441;77;21027;-53
2021/07/29 07:42:11;;;;;;;10.93;4.37;;;29.50;46.30;;;;;;1872444;77;21043;-52
2021/07/29 07:44:40;;;;;;;6.92;4.92;;;29.60;46.30;;;;;;1871024;76;21132;-53
2021/07/29 07:47:10;;;;;;;6.37;3.72;;;29.60;46.80;;;;;;1872064;77;21207;-53
2021/07/29 07:49:40;;;;;;;9.85;4.12;;;29.60;46.40;;;;;;1871928;77;21168;-52
2021/07/29 07:52:09;;;;;;;9.70;4.58;;;29.50;46.50;;;;;;1871631;77;21054;-53
2021/07/29 07:54:38;;;;;;;9.05;5.20;;;29.50;46.20;;;;;;1871760;75;21047;-52
2021/07/29 07:57:08;;;;;;;11.40;4.22;;;29.60;46.30;;;;;;1871953;77;21020;-51
2021/07/29 07:59:38;;;;;;;9.90;4.20;;;29.60;46.20;;;;;;1866735;77;21125;-52
2021/07/29 08:02:08;;;;;;;10.58;4.95;;;29.60;46.60;;;;;;1839331;78;21132;-55
2021/07/29 08:04:37;;;;;;;8.40;4.90;;;29.70;46.50;;;;;;1838884;77;21385;-52
2021/07/29 08:07:06;;;;;;;5.95;4.53;;;29.80;46.40;;;;;;1838810;78;21074;-52
2021/07/29 08:09:36;;;;;;;5.28;4.42;;;29.90;46.30;;;;;;1839135;78;21074;-52
2021/07/29 08:12:05;;;;;;;10.32;4.85;;;29.90;46.60;;;;;;1839037;78;21133;-53
2021/07/29 08:14:36;;;;;;;8.60;4.35;;;30.00;46.40;;;;;;1838885;77;21097;-50
2021/07/29 08:17:06;;;;;;;12.15;4.28;;;30.00;46.00;;;;;;1839008;78;21156;-53
2021/07/29 08:19:36;;;;;;;10.53;4.55;;;30.00;46.10;;;;;;1838961;78;21090;-52
2021/07/29 08:22:06;;;;;;;8.83;3.85;;;30.20;45.90;;;;;;1839131;78;21035;-55
2021/07/29 08:24:35;;;;;;;6.03;3.92;;;30.20;45.70;;;;;;1838896;77;21138;-54
2021/07/29 08:27:05;;;;;;;7.67;3.58;;;30.30;45.00;;;;;;1838985;78;21093;-55
2021/07/29 08:29:35;;;;;;;8.88;3.30;;;30.30;44.30;;;;;;1838895;78;21097;-55
2021/07/29 08:32:04;;;;;;;3.83;3.20;;;30.30;44.40;;;;;;1839066;78;21192;-55
2021/07/29 08:34:34;;;;;;;3.85;3.02;;;30.30;43.90;;;;;;1838906;78;21106;-53
2021/07/29 08:37:04;;;;;;;16.12;4.40;;;30.30;44.00;;;;;;1838941;78;21074;-62
2021/07/29 08:39:33;;;;;;;6.47;3.70;;;30.40;44.70;;;;;;1839094;78;21102;-62
2021/07/29 08:42:03;;;;;;;8.68;4.30;;;30.50;44.60;;;;;;1838906;77;21085;-58
2021/07/29 08:44:34;;;;;;;9.25;4.00;;;30.60;44.10;;;;;;1838773;77;21012;-58
2021/07/29 08:47:06;;;;;;;7.78;3.77;;;30.70;43.80;;;;;;1838804;78;21071;-61
2021/07/29 08:49:38;;;;;;;7.50;3.92;;;30.80;43.40;;;;;;1837826;77;21074;-58
2021/07/29 08:52:08;;;;;;;6.17;3.70;;;30.90;43.30;;;;;;1838924;77;21192;-58
2021/07/29 08:54:39;;;;;;;5.95;3.58;;;30.90;42.90;;;;;;1838979;78;21096;-59
2021/07/29 08:57:11;;;;;;;10.53;4.22;;;30.90;43.00;;;;;;1838916;78;21058;-62
2021/07/29 08:59:40;;;;;;;10.03;5.45;;;31.00;43.20;;;;;;1838947;77;21031;-58
2021/07/29 09:02:26;;;;;;;17.62;4.28;;;31.10;43.20;;;;;;1839013;78;21070;-58
2021/07/29 09:05:14;;;;;;;5.72;3.77;;;31.20;43.00;;;;;;1838880;78;21102;-63
2021/07/29 09:07:44;;;;;;;9.43;4.05;;;31.20;42.60;;;;;;1839029;77;21548;-59
2021/07/29 09:13:13;;;;;;;7.25;3.27;;;31.30;42.60;;;;;;1900449;74;21552;-60
2021/07/29 09:15:43;;;;;;;9.83;4.22;;;31.40;41.40;;;;;;1903633;75;21149;-61
2021/07/29 09:18:17;;;;;;;6.67;3.92;;;31.40;41.80;;;;;;1852328;77;21101;-59
2021/07/29 09:20:47;;;;;;;8.78;3.77;;;31.50;41.30;;;;;;1894631;76;21013;-58
2021/07/29 09:23:18;;;;;;;13.83;7.17;;;31.50;41.00;;;;;;1900766;75;21129;-61
2021/07/29 09:26:01;;;;;;;9.33;4.45;;;31.60;41.00;;;;;;1900685;74;21078;-61
2021/07/29 09:28:41;;;;;;;8.73;4.12;;;31.70;40.90;;;;;;1900730;75;20996;-59
2021/07/29 09:31:20;;;;;;;6.78;3.62;;;31.80;40.50;;;;;;1900796;75;21020;-62
2021/07/29 09:34:03;;;;;;;5.22;3.40;;;31.80;40.00;;;;;;1903685;74;20992;-62
2021/07/29 09:36:33;;;;;;;4.70;3.20;;;31.90;39.00;;;;;;1852437;77;21042;-64
2021/07/29 09:39:23;;;;;;;6.85;3.30;;;31.90;38.70;;;;;;1900863;75;21055;-65
2021/07/29 09:41:58;;;;;;;6.72;3.65;;;32.00;38.20;;;;;;1900843;75;21028;-61
2021/07/29 09:44:47;;;;;;;5.40;3.65;;;32.00;39.10;;;;;;1896306;75;21078;-65
2021/07/29 09:47:36;;;;;;;10.15;4.30;;;32.00;38.10;;;;;;1901084;74;21020;-62
2021/07/29 09:50:07;;;;;;;7.35;3.62;;;32.00;38.20;;;;;;1860767;77;21122;-61
2021/07/29 09:52:38;;;;;;;8.48;3.98;;;32.00;38.60;;;;;;1860664;76;21182;-60
2021/07/29 09:55:09;;;;;;;17.87;3.77;;;32.00;38.00;;;;;;1860720;77;21146;-59
2021/07/29 09:57:38;;;;;;;8.05;3.62;;;32.10;38.00;;;;;;1860768;76;21059;-62
2021/07/29 10:00:08;;;;;;;7.78;4.35;;;32.10;37.70;;;;;;1860713;76;21048;-60
2021/07/29 10:02:40;;;;;;;7.45;3.65;;;32.10;37.50;;;;;;1860593;77;21105;-61
2021/07/29 10:05:12;;;;;;;7.17;3.40;;;32.10;36.70;;;;;;1860495;77;21075;-65
2021/07/29 10:07:44;;;;;;;7.58;3.95;;;32.10;36.70;;;;;;1860941;77;21115;-64
2021/07/29 10:10:14;;;;;;;5.78;3.58;;;32.10;36.70;;;;;;1860924;77;21467;-65
2021/07/29 10:12:47;;;;;;;7.87;3.55;;;32.10;36.40;;;;;;1860615;77;21107;-65
2021/07/29 10:15:35;;;;;;;6.28;2.77;;;32.20;36.70;;;;;;1860877;76;21131;-63
2021/07/29 10:18:06;;;;;;;11.35;2.90;;;32.20;35.30;;;;;;1860920;76;21060;-60
2021/07/29 10:20:37;;;;;;;9.53;3.22;;;32.30;34.70;;;;;;1860648;77;21093;-62
2021/07/29 10:23:18;;;;;;;7.70;2.92;;;32.40;33.70;;;;;;1860707;76;21099;-60
2021/07/29 10:25:57;;;;;;;4.17;2.72;;;32.40;34.00;;;;;;1860553;77;21485;-60
2021/07/29 10:28:28;;;;;;;12.63;3.25;;;32.50;34.20;;;;;;1860035;76;21087;-58
2021/07/29 10:30:59;;;;;;;5.15;3.10;;;32.50;34.20;;;;;;1860620;76;21126;-59
2021/07/29 10:33:33;;;;;;;4.10;2.35;;;32.50;33.40;;;;;;1860596;77;21076;-60
2021/07/29 10:36:00;;;;;;;5.55;2.67;;;32.60;32.40;;;;;;1859877;76;21064;-60
2021/07/29 10:38:47;;;;;;;4.17;2.65;;;32.60;32.30;;;;;;1860655;76;21065;-65
2021/07/29 10:41:36;;;;;;;6.58;2.55;;;32.60;32.00;;;;;;1860582;76;21056;-58
2021/07/29 10:44:10;;;;;;;7.90;3.37;;;32.70;32.20;;;;;;1860719;76;21170;-59
2021/07/29 10:46:56;;;;;;;7.70;2.77;;;32.60;32.50;;;;;;1860735;76;21141;-59
2021/07/29 10:49:46;;;;;;;5.85;3.58;;;32.70;31.80;;;;;;1837762;76;21069;-58
2021/07/29 10:52:16;;;;;;;7.85;5.40;;;32.70;32.20;;;;;;1815139;78;21096;-57
2021/07/29 10:54:46;;;;;;;6.70;3.85;;;32.80;32.40;;;;;;1823230;77;21162;-62
2021/07/29 10:57:16;;;;;;;10.55;8.13;;;32.80;31.30;;;;;;1823153;78;21150;-59
2021/07/29 10:59:52;;;;;;;5.10;2.35;;;32.80;30.80;;;;;;1823378;77;21108;-63
2021/07/29 11:02:45;;;;;;;4.37;2.35;;;32.90;30.50;;;;;;1857765;77;21628;-61
2021/07/29 11:05:19;;;;;;;3.80;2.25;;;32.90;30.30;;;;;;1857586;77;21140;-64
2021/07/29 11:07:43;;;;;;;9.00;5.75;;;32.90;30.60;;;;;;1856901;77;21496;-58
2021/07/29 11:10:16;;;;;;;5.85;2.47;;;33.00;30.90;;;;;;1857792;77;21062;-59
2021/07/29 11:12:48;;;;;;;14.58;7.97;;;33.10;30.70;;;;;;1858197;77;21456;-59
2021/07/29 11:15:18;;;;;;;9.03;6.70;;;33.10;30.70;;;;;;1858034;77;21090;-58
2021/07/29 11:17:47;;;;;;;4.97;3.08;;;33.20;30.60;;;;;;1858572;77;21151;-59
2021/07/29 11:20:27;;;;;;;5.40;3.33;;;33.20;30.80;;;;;;1858777;77;21159;-56
2021/07/29 11:22:57;;;;;;;5.85;2.50;;;33.20;30.80;;;;;;1858713;77;21058;-54
2021/07/29 11:25:26;;;;;;;6.75;2.67;;;33.20;31.10;;;;;;1858637;77;21133;-55
2021/07/29 11:27:57;;;;;;;9.10;6.80;;;33.20;31.00;;;;;;1858639;77;21047;-54
2021/07/29 11:30:29;;;;;;;3.92;2.33;;;33.20;30.30;;;;;;1856212;77;21481;-55
2021/07/29 11:32:58;;;;;;;9.53;2.62;;;33.20;30.00;;;;;;1854545;77;21038;-54
2021/07/29 11:35:29;;;;;;;7.37;4.50;;;33.20;30.30;;;;;;1858636;77;21042;-55
2021/07/29 11:37:58;;;;;;;12.07;9.38;;;33.10;30.40;;;;;;1858661;77;21008;-55
2021/07/29 11:40:27;;;;;;;6.90;4.03;;;33.20;30.40;;;;;;1858644;77;21097;-54
2021/07/29 11:42:57;;;;;;;9.28;2.80;;;33.20;30.50;;;;;;1858741;77;21180;-55
2021/07/29 11:45:35;;;;;;;15.53;9.83;;;33.20;30.80;;;;;;1858530;77;21135;-55
2021/07/29 11:48:02;;;;;;;15.23;9.88;;;33.20;31.00;;;;;;1857416;77;21511;-55
2021/07/29 11:50:43;;;;;;;11.63;8.00;;;33.20;30.60;;;;;;1858556;77;21022;-55
2021/07/29 11:53:13;;;;;;;6.42;4.47;;;33.20;30.80;;;;;;1858658;77;21022;-55
2021/07/29 11:55:44;;;;;;;7.85;4.15;;;33.20;30.50;;;;;;1858560;77;21058;-55
2021/07/29 11:58:16;;;;;;;17.07;9.45;;;33.20;30.70;;;;;;1857218;77;21136;-55
2021/07/29 12:00:46;;;;;;;8.50;3.22;;;33.20;31.00;;;;;;1858489;76;21030;-53
2021/07/29 12:03:30;;;;;;;4.50;3.35;;;33.20;31.00;;;;;;1858574;77;21043;-55
2021/07/29 12:06:01;;;;;;;9.30;3.70;;;33.30;31.20;;;;;;1857096;76;21566;-55
2021/07/29 12:08:32;;;;;;;4.00;3.20;;;33.40;31.30;;;;;;1858546;76;21043;-55
2021/07/29 12:11:01;;;;;;;5.95;3.55;;;33.40;30.70;;;;;;1858497;76;21151;-55
2021/07/29 12:13:32;;;;;;;4.83;2.80;;;33.30;30.80;;;;;;1858591;76;21074;-55
2021/07/29 12:16:01;;;;;;;7.40;3.08;;;33.20;30.80;;;;;;1858563;77;21062;-55
2021/07/29 12:18:31;;;;;;;8.85;3.22;;;33.20;30.80;;;;;;1858708;77;21129;-54
2021/07/29 12:21:00;;;;;;;7.28;3.50;;;33.20;30.60;;;;;;1858562;77;21050;-55
2021/07/29 12:23:30;;;;;;;4.37;3.10;;;33.20;30.80;;;;;;1858505;76;21042;-55
2021/07/29 12:26:14;;;;;;;6.17;3.10;;;33.20;31.20;;;;;;1858513;77;21042;-55
2021/07/29 12:28:45;;;;;;;7.47;3.42;;;33.20;31.40;;;;;;1856361;76;21054;-56
2021/07/29 12:31:22;;;;;;;8.28;2.87;;;33.30;31.20;;;;;;1858596;76;21508;-56
2021/07/29 12:34:00;;;;;;;6.58;2.72;;;33.40;31.30;;;;;;1858402;76;21061;-55
2021/07/29 12:36:49;;;;;;;8.88;3.47;;;33.40;31.50;;;;;;1858558;76;21101;-56
2021/07/29 12:39:20;;;;;;;4.15;2.83;;;33.40;31.40;;;;;;1858548;76;21116;-56
2021/07/29 12:41:49;;;;;;;7.55;3.05;;;33.40;30.90;;;;;;1858573;77;21030;-56
2021/07/29 12:44:22;;;;;;;9.70;3.45;;;33.40;31.10;;;;;;1858559;77;21144;-55
2021/07/29 12:46:53;;;;;;;7.78;3.00;;;33.50;31.50;;;;;;1858557;76;21104;-56
2021/07/29 12:49:22;;;;;;;11.97;3.60;;;33.50;31.30;;;;;;1855069;76;21038;-56
2021/07/29 12:51:52;;;;;;;6.25;3.25;;;33.50;31.30;;;;;;1858592;77;21046;-56
2021/07/29 12:54:23;;;;;;;8.55;3.85;;;33.50;30.90;;;;;;1858555;76;21050;-55
2021/07/29 12:57:07;;;;;;;5.92;3.30;;;33.50;31.10;;;;;;1858561;77;21058;-55
2021/07/29 12:59:37;;;;;;;5.70;3.20;;;33.40;31.20;;;;;;1858758;77;21089;-56
2021/07/29 13:02:07;;;;;;;10.23;3.47;;;33.50;31.60;;;;;;1858550;76;21125;-56
2021/07/29 13:04:37;;;;;;;9.58;3.58;;;33.50;31.30;;;;;;1858574;76;21054;-56